createdAt,value
2023-03-04T00:04:14.986Z,19.30
2023-03-04T00:09:18.658Z,16.27
2023-03-04T00:14:22.524Z,17.40
2023-03-04T00:19:27.539Z,17.27
2023-03-04T00:24:31.320Z,17.50
2023-03-04T00:29:34.714Z,19.80
2023-03-04T00:34:40.716Z,17.92
2023-03-04T00:39:44.369Z,24.35
2023-03-04T00:44:48.189Z,20.67
2023-03-04T00:49:53.502Z,27.13
2023-03-04T00:54:56.896Z,28.13
2023-03-04T01:00:00.622Z,25.35
2023-03-04T01:05:06.232Z,29.27
2023-03-04T01:10:13.082Z,24.15
2023-03-04T01:15:17.114Z,28.15
2023-03-04T01:20:22.162Z,25.02
2023-03-04T01:25:25.426Z,15.38
2023-03-04T01:30:28.847Z,25.33
2023-03-04T01:35:34.689Z,19.55
2023-03-04T01:40:39.140Z,23.77
2023-03-04T01:45:42.474Z,17.98
2023-03-04T01:50:47.178Z,23.30
2023-03-04T01:55:51.220Z,20.47
2023-03-04T02:00:54.454Z,19.92
2023-03-04T02:05:59.020Z,22.35
2023-03-04T02:11:02.248Z,20.52
2023-03-04T02:16:05.883Z,22.05
2023-03-04T02:21:16.591Z,19.85
2023-03-04T02:26:23.603Z,23.60
2023-03-04T02:31:31.714Z,19.33
2023-03-04T02:36:36.278Z,20.55
2023-03-04T02:41:41.412Z,23.15
2023-03-04T02:46:44.993Z,21.42
2023-03-04T02:51:52.041Z,16.98
2023-03-04T02:56:59.928Z,25.60
2023-03-04T03:02:04.350Z,23.52
2023-03-04T03:07:07.858Z,20.08
2023-03-04T03:12:12.775Z,23.77
2023-03-04T03:17:16.924Z,20.75
2023-03-04T03:22:20.557Z,23.58
2023-03-04T03:27:26.040Z,19.27
2023-03-04T03:32:29.758Z,21.42
2023-03-04T03:37:33.302Z,26.65
2023-03-04T03:42:38.268Z,25.13
2023-03-04T03:47:41.488Z,23.20
2023-03-04T03:52:44.741Z,28.60
2023-03-04T03:57:49.567Z,20.70
2023-03-04T04:02:53.867Z,22.60
2023-03-04T04:07:57.143Z,19.08
2023-03-04T04:13:01.808Z,25.23
2023-03-04T04:18:05.475Z,16.87
2023-03-04T04:23:10.205Z,19.30
2023-03-04T04:28:15.005Z,23.63
2023-03-04T04:33:18.523Z,24.03
2023-03-04T04:38:21.970Z,21.08
2023-03-04T04:43:27.600Z,26.83
2023-03-04T04:53:34.047Z,34.28
2023-03-04T04:58:39.671Z,22.70
2023-03-04T05:08:46.974Z,21.63
2023-03-04T05:13:51.945Z,25.63
2023-03-04T05:18:55.435Z,30.50
2023-03-04T05:24:01.258Z,20.77
2023-03-04T05:29:06.031Z,24.02
2023-03-04T05:34:09.305Z,35.67
2023-03-04T05:39:12.579Z,27.02
2023-03-04T05:44:17.261Z,22.88
2023-03-04T05:49:20.746Z,20.23
2023-03-04T05:54:24.298Z,26.05
2023-03-04T05:59:29.246Z,24.27
2023-03-04T06:04:33.079Z,21.98
2023-03-04T06:09:36.401Z,21.60
2023-03-04T06:14:41.033Z,29.08
2023-03-04T06:19:44.614Z,20.95
2023-03-04T06:24:50.454Z,23.50
2023-03-04T06:29:55.120Z,26.02
2023-03-04T06:34:58.347Z,22.50
2023-03-04T06:40:02.027Z,24.48
2023-03-04T06:45:07.989Z,24.67
2023-03-04T06:50:13.387Z,24.55
2023-03-04T06:55:16.941Z,22.95
2023-03-04T07:00:24.008Z,22.92
2023-03-04T07:05:27.332Z,24.27
2023-03-04T07:10:31.036Z,20.90
2023-03-04T07:15:36.263Z,22.35
2023-03-04T07:20:39.898Z,17.27
2023-03-04T07:25:43.418Z,20.95
2023-03-04T07:30:48.059Z,21.23
2023-03-04T07:35:59.360Z,26.42
2023-03-04T07:41:03.270Z,17.83
2023-03-04T07:46:08.378Z,17.38
2023-03-04T07:51:13.782Z,18.02
2023-03-04T07:56:19.396Z,15.57
2023-03-04T08:01:26.327Z,20.52
2023-03-04T08:06:30.305Z,27.58
2023-03-04T08:11:35.019Z,17.83
2023-03-04T08:16:39.786Z,13.60
2023-03-04T08:21:43.037Z,14.87
2023-03-04T08:26:48.157Z,21.52
2023-03-04T08:31:54.348Z,17.90
2023-03-04T08:36:57.770Z,16.23
2023-03-04T08:42:01.027Z,13.43
2023-03-04T08:47:09.275Z,14.75
2023-03-04T08:52:12.544Z,19.52
2023-03-04T08:57:15.921Z,12.23
2023-03-04T09:02:20.530Z,12.25
2023-03-04T09:07:25.485Z,10.57
2023-03-04T09:12:28.765Z,9.47
2023-03-04T09:17:33.776Z,11.40
2023-03-04T09:22:37.216Z,11.35
2023-03-04T09:27:40.540Z,10.00
2023-03-04T09:32:45.127Z,7.38
2023-03-04T09:37:49.779Z,7.03
2023-03-04T09:42:58.114Z,10.93
2023-03-04T09:48:03.873Z,9.07
2023-03-04T09:53:15.931Z,9.52
2023-03-04T09:58:32.273Z,5.97
2023-03-04T10:03:45.743Z,7.28
2023-03-04T10:08:55.924Z,9.43
2023-03-04T10:14:11.977Z,4.93
2023-03-04T10:19:38.180Z,10.32
2023-03-04T10:24:41.484Z,11.30
2023-03-04T10:29:45.829Z,8.05
2023-03-04T10:34:51.455Z,9.98
2023-03-04T10:39:54.787Z,12.18
2023-03-04T10:44:59.947Z,6.43
2023-03-04T10:50:06.546Z,7.63
2023-03-04T10:55:17.839Z,5.57
2023-03-04T11:00:32.096Z,8.02
2023-03-04T11:05:36.946Z,3.47
2023-03-04T11:10:41.933Z,8.75
2023-03-04T11:15:54.528Z,5.43
2023-03-04T11:21:01.992Z,6.50
2023-03-04T11:26:10.347Z,4.40
2023-03-04T11:31:17.616Z,5.93
2023-03-04T11:36:30.395Z,4.63
2023-03-04T11:41:36.768Z,2.40
2023-03-04T11:47:12.908Z,10.95
2023-03-04T11:52:26.881Z,5.20
2023-03-04T11:57:44.143Z,4.68
2023-03-04T12:03:13.257Z,3.63
2023-03-04T12:08:40.101Z,4.60
2023-03-04T12:14:10.315Z,5.10
2023-03-04T12:19:25.826Z,5.88
2023-03-04T12:24:48.438Z,4.22
2023-03-04T12:29:59.839Z,4.10
2023-03-04T12:35:34.129Z,4.50
2023-03-04T12:40:48.972Z,5.15
2023-03-04T12:46:02.408Z,3.15
2023-03-04T12:51:27.230Z,6.05
2023-03-04T12:56:38.986Z,3.27
2023-03-04T13:01:47.610Z,5.80
2023-03-04T13:07:08.374Z,4.60
2023-03-04T13:12:20.952Z,10.82
2023-03-04T13:17:43.920Z,5.03
2023-03-04T13:22:53.566Z,5.80
2023-03-04T13:28:20.273Z,7.35
2023-03-04T13:34:01.845Z,2.83
2023-03-04T13:39:30.046Z,5.55
2023-03-04T13:45:01.351Z,4.43
2023-03-04T13:50:47.307Z,4.68
2023-03-04T13:56:21.446Z,8.30
2023-03-04T14:01:31.903Z,4.88
2023-03-04T14:06:35.209Z,8.98
2023-03-04T14:11:42.451Z,7.18
2023-03-04T14:16:51.393Z,7.82
2023-03-04T14:21:55.234Z,15.05
2023-03-04T14:27:13.365Z,10.93
2023-03-04T14:32:17.997Z,6.03
2023-03-04T14:37:24.698Z,2.58
2023-03-04T14:42:41.732Z,7.03
2023-03-04T14:47:49.207Z,8.15
2023-03-04T14:53:12.453Z,10.45
2023-03-04T14:58:22.760Z,11.43
2023-03-04T15:03:30.791Z,4.75
2023-03-04T15:08:38.421Z,7.60
2023-03-04T15:13:44.154Z,9.70
2023-03-04T15:19:00.314Z,3.47
2023-03-04T15:24:04.363Z,10.18
2023-03-04T15:29:14.738Z,9.93
2023-03-04T15:34:21.586Z,8.77
2023-03-04T15:39:26.419Z,6.03
2023-03-04T15:44:29.726Z,4.87
2023-03-04T15:49:34.371Z,6.28
2023-03-04T15:54:37.700Z,6.60
2023-03-04T15:59:41.603Z,5.00
2023-03-04T16:04:46.184Z,9.43
2023-03-04T16:09:53.063Z,3.78
2023-03-04T16:20:41.120Z,5.75
2023-03-04T16:25:45.430Z,2.97
2023-03-04T16:30:48.981Z,8.27
2023-03-04T16:35:53.829Z,3.28
2023-03-04T16:40:58.892Z,5.22
2023-03-04T16:46:02.370Z,5.38
2023-03-04T16:51:15.781Z,4.70
2023-03-04T16:56:20.398Z,3.10
2023-03-04T17:01:26.277Z,9.30
2023-03-04T17:06:30.984Z,2.15
2023-03-04T17:11:34.735Z,3.10
2023-03-04T17:16:38.078Z,9.80
2023-03-04T17:21:42.832Z,3.38
2023-03-04T17:26:46.143Z,2.07
2023-03-04T17:31:50.046Z,3.65
2023-03-04T17:36:54.695Z,3.60
2023-03-04T17:41:58.424Z,5.93
2023-03-04T17:47:01.738Z,6.15
2023-03-04T17:52:06.968Z,4.68
2023-03-04T17:57:10.414Z,5.60
2023-03-04T18:02:16.394Z,7.78
2023-03-04T18:07:21.522Z,4.88
2023-03-04T18:12:25.241Z,3.78
2023-03-04T18:17:28.642Z,5.57
2023-03-04T18:22:33.753Z,6.95
2023-03-04T18:27:39.700Z,9.20
2023-03-04T18:32:51.879Z,6.30
2023-03-04T18:37:57.087Z,12.13
2023-03-04T18:43:00.579Z,17.93
2023-03-04T18:48:03.946Z,7.07
2023-03-04T18:53:08.823Z,7.18
2023-03-04T18:58:12.371Z,11.77
2023-03-04T19:03:15.873Z,8.30
2023-03-04T19:08:20.529Z,8.45
2023-03-04T19:13:23.980Z,6.78
2023-03-04T19:18:28.942Z,3.97
2023-03-04T19:23:33.534Z,4.33
2023-03-04T19:28:37.019Z,10.35
2023-03-04T19:33:41.050Z,13.77
2023-03-04T19:38:45.685Z,11.32
2023-03-04T19:43:48.980Z,10.77
2023-03-04T19:48:52.214Z,10.75
2023-03-04T19:53:57.256Z,13.18
2023-03-04T19:59:02.157Z,18.25
2023-03-04T20:04:08.595Z,9.40
2023-03-04T20:09:15.206Z,10.93
2023-03-04T20:14:18.812Z,6.40
2023-03-04T20:19:22.488Z,6.95
2023-03-04T20:24:27.966Z,7.55
2023-03-04T20:29:31.317Z,18.20
2023-03-04T20:34:36.885Z,6.13
2023-03-04T20:39:41.496Z,10.85
2023-03-04T20:44:44.890Z,7.88
2023-03-04T20:49:48.237Z,13.32
2023-03-04T20:54:53.573Z,10.75
2023-03-04T20:59:57.614Z,12.00
2023-03-04T21:05:02.629Z,12.23
2023-03-04T21:10:11.610Z,15.23
2023-03-04T21:15:15.245Z,12.90
2023-03-04T21:20:19.006Z,9.63
2023-03-04T21:25:24.223Z,9.63
2023-03-04T21:30:27.903Z,9.98
2023-03-04T21:35:33.890Z,23.65
2023-03-04T21:40:38.541Z,13.60
2023-03-04T21:45:41.893Z,9.73
2023-03-04T21:50:45.744Z,11.00
2023-03-04T21:55:53.221Z,11.40
2023-03-04T22:00:57.578Z,8.52
2023-03-04T22:06:05.476Z,8.55
2023-03-04T22:11:12.456Z,10.18
2023-03-04T22:16:15.993Z,14.70
2023-03-04T22:21:21.066Z,8.80
2023-03-04T22:26:32.652Z,11.05
2023-03-04T22:31:37.810Z,9.63
2023-03-04T22:36:43.859Z,8.70
2023-03-04T22:41:48.602Z,10.85
2023-03-04T22:46:51.952Z,15.07
2023-03-04T22:51:55.259Z,10.32
2023-03-04T22:56:59.879Z,10.10
2023-03-04T23:02:03.630Z,7.15
2023-03-04T23:07:06.877Z,11.48
2023-03-04T23:12:11.713Z,6.50
2023-03-04T23:17:14.928Z,4.67
2023-03-04T23:22:18.145Z,6.38
2023-03-04T23:27:22.852Z,7.55
2023-03-04T23:32:26.184Z,9.00
2023-03-04T23:37:29.402Z,6.63
2023-03-04T23:42:33.957Z,9.98
2023-03-04T23:47:37.179Z,9.02
2023-03-04T23:52:40.586Z,6.60
2023-03-04T23:57:45.508Z,6.63
